Shelby County Airport
KEET : now visible

Airfield :











YOU CAN JOIN US ON...

 
LOGIN :

Register | Disclaimer

   EN    FR    IT 

 









Legend :    VFR   Marginal VFR   IFR   Intensive IFR   Very Intensive IFR
Visi :
Ceiling :
>= 8 km
>= 3000ft
5 to 8 km
1000 to 3000 ft
1500m to 5 km
500 to 1000 ft
800 to 1500m
200 to 500 ft
< 800m
< 200 ft
Symbols :   Thunderstorms  Fog  Heavy snow  Heavy precipitations  Wind > 20 kt






- Airport Elevation : 586 ft


KEET - Shelby County

CURRENT METAR :
  • 161915Z AUTO VRB04KT 10SM BKN010 OVC015 24/22 A2997 RMK AO2 CIG 007V014 T02390222

EXPIRED METARs :
  • 161853Z AUTO VRB03KT 10SM BKN008 BKN012 OVC022 23/22 A2998 RMK AO2 RAE22 CIG 006V010 SLP146 P0005 T02330217
  • 161845Z AUTO VRB03KT 10SM BKN008 OVC023 23/22 A2999 RMK AO2 RAE22 CIG 006V013 P0005 T02330222
  • 161822Z AUTO VRB03KT 10SM BKN010 OVC014 23/22 A2999 RMK AO2 RAE22 P0005 T02280217
  • 161814Z AUTO 00000KT 2SM -RA BR BKN010 OVC014 23/22 A2999 RMK AO2 P0005 T02280217
  • 161805Z AUTO 12005KT 1 3/4SM RA BR BKN007 OVC012 23/22 A3000 RMK AO2 CIG 005V011 P0003 T02280217
  • 161753Z AUTO VRB03KT 5SM -RA BR BKN007 OVC014 23/22 A3000 RMK AO2 RAE24B42 CIG 005V009 SLP152 P0001 60006 T02330217 10233 20211 56003
  • 161750Z AUTO VRB03KT 2 1/2SM -RA BR BKN007 BKN011 OVC016 23/22 A3000 RMK AO2 RAE24B42 CIG 005V010 P0001
  • 161711Z AUTO VRB03KT 5SM -RA BR BKN009 OVC016 23/22 A3000 RMK AO2 CIG 007V012 P0000 T02330217
  • 161653Z AUTO VRB03KT 6SM -RA BR FEW007 BKN011 OVC016 23/22 A3000 RMK AO2 RAB10 SLP153 P0001 T02330217
  • 161630Z AUTO 00000KT 6SM -RA BR BKN008 OVC017 23/22 A3001 RMK AO2 RAB10 CIG 006V012 P0000 T02330217
  • 161622Z AUTO 08005KT 6SM -RA BR BKN010 OVC017 23/22 A3001 RMK AO2 RAB10 CIG 006V014 P0000 T02330217

TAF KEET
Valid from the 16 at 18:00 until the 17 at 18:00 UTC


161742Z 1618/1718 09007KT 6SM SHRA BR OVC011
FM170000 09006KT P6SM VCSH BKN011
FM170300 11007KT P6SM BKN009
FM170800 12006KT P6SM OVC006
PROB30 1715/1717 4SM -SHRA BR OVC004
KZTL FIR / North America



MET'MAP, your aeronautical weather chart ! - Copyright ORBIFLY December 2007 - Disclaimer

ORBIFLY MET'MAP TEAM :

Programming & Development : Alexandra Zaïnal
Concept & original design : Baudouin d'Aumeries
Assistance for programming : Marc-Olivier Méhu
Technical & hardware support : Manuel Goepfert

Contact : metmap@orbifly.com




SOURCES & CREDITS :

   NOAA       Earth
Advisory